Nearby METAR Reports

 

KDVT - Phoenix/Deer Vly, Arizona, USA
Distance from station: SW 14mi, 22km
Updated: 2022-05-19 01:53
Clear
Clear
 Wind from calm
Wind: Calm
Temperature: 70°F , 21°C
Dew Point: 28°F , -2°C
Humidity: 21%
Barometer: 29.87 inHg , 1011.5 hPa
Clouds: Clear
Visibility: 9 miles , 14 km
2022/05/19 08:53 KDVT 190853Z 00000KT 9SM CLR 21/M02 A2987 RMK AO2 SLP090 T02111017 58005
KSDL - Scottsdale, Arizona, USA
Distance from station: S 15mi, 23km
Updated: 2022-05-19 01:53
Clear
Clear
 Wind from calm
Wind: Calm
Temperature: 81°F , 27°C
Dew Point: 32°F , 0°C
Humidity: 17%
Barometer: 29.88 inHg , 1011.9 hPa
Clouds: Clear
Visibility: 10 miles , 16 km
2022/05/19 08:53 KSDL 190853Z AUTO 00000KT 10SM CLR 27/00 A2988 RMK AO2 SLP090 T02670000 58004
KFFZ - Mesa/Falcon Fld, Arizona, USA
Distance from station: SSE 27mi, 44km
Updated: 2022-05-19 01:54
Clear
Clear
 Wind from ESE
Wind: ESE 6 mph , 9 km/h
Temperature: 75°F , 24°C
Dew Point: 41°F , 5°C
Humidity: 29%
Barometer: 29.87 inHg , 1011.5 hPa
Clouds: Clear
Visibility: 10 miles , 16 km
2022/05/19 08:54 KFFZ 190854Z AUTO 12005KT 10SM CLR 24/05 A2987 RMK AO2 SLP089 T02390050 58004 TSNO
 
KPHX - Phoenix/Sky Hrbr, Arizona, USA
Distance from station: SSW 28mi, 45km
Updated: 2022-05-19 01:51
Clear
Clear
 Wind from varies
Wind: varies 3 mph , 6 km/h
Temperature: 82°F , 28°C
Dew Point: 34°F , 1°C
Humidity: 17%
Barometer: 29.83 inHg , 1010.2 hPa
Clouds: Clear
Visibility: 10 miles , 16 km
2022/05/19 08:51 KPHX 190851Z VRB03KT 10SM CLR 28/01 A2983 RMK AO2 SLP081 T02830006 58003
KLUF - Luke Afb/Glendal, Arizona, USA
Distance from station: SW 34mi, 55km
Updated: 2022-05-18 21:58
NOT Current
Clear
Clear
 Wind from SW
Wind: SW 15 mph , 24 km/h
Temperature: 88°F , 31°C
Dew Point: 27°F , -3°C
Humidity: 11%
Barometer: 29.84 inHg , 1010.5 hPa
Clouds: Clear
Visibility: 10 miles , 16 km
2022/05/19 04:58 KLUF 190458Z AUTO 23013KT 10SM CLR 31/M03 A2984 RMK AO2 SLP091 T03121028 $
KGYR - Goodyear Municip, Arizona, USA
Distance from station: SW 39mi, 63km
Updated: 2022-05-18 20:47
NOT Current
Clear
Clear
 Wind from SW
Wind: SW 14 mph , 22 km/h
Temperature: 93°F , 34°C
Dew Point: 32°F , 0°C
Humidity: 11%
Barometer: 29.84 inHg , 1010.5 hPa
Clouds: Clear
Visibility: 10 miles , 16 km
2022/05/19 03:47 KGYR 190347Z 23012KT 10SM SKC 34/00 A2984 RMK LAST
 
KIWA - Chandler/Mesa, Arizona, USA
Distance from station: SSE 39mi, 63km
Updated: 2022-05-19 01:55
Clear
Clear
 Wind from ESE
Wind: ESE 9 mph , 15 km/h
Temperature: 73°F , 23°C
Dew Point: 36°F , 2°C
Humidity: 25%
Barometer: 29.89 inHg , 1012.2 hPa
Clouds: Clear
Visibility: 10 miles , 16 km
2022/05/19 08:55 KIWA 190855Z AUTO 11008KT 10SM CLR 23/02 A2989 RMK AO2 T02320017
KPAN - Payson, Arizona, USA
Distance from station: NE 44mi, 70km
Updated: 2022-05-19 01:55
Clear
Clear
 Wind from calm
Wind: Calm
Temperature: 61°F , 16°C
Dew Point: 16°F , -9°C
Humidity: 17%
Barometer: 30.10 inHg , 1019.3 hPa
Clouds: Clear
Visibility: 10 miles , 16 km
2022/05/19 08:55 KPAN 190855Z AUTO 00000KT 10SM CLR 16/M09 A3010 RMK AO2
KBXK - Buckeye, Arizona, USA
Distance from station: WSW 53mi, 86km
Updated: 2022-05-19 01:55

 Wind from NW
Wind: NW 7 mph , 11 km/h
Temperature: 73°F , 23°C
Dew Point: 25°F , -4°C
Humidity: 16%
Barometer: 29.85 inHg , 1010.8 hPa
Visibility: 9 miles , 14 km
2022/05/19 08:55 KBXK 190855Z AUTO 31006KT 9SM 23/M04 A2985 RMK A01
 
KA39 - Maricopa Ak-Chin, Arizona, USA
Distance from station: S 58mi, 94km
Updated: 2022-05-19 01:55
Clear
Clear
 Wind from ESE
Wind: ESE 8 mph , 13 km/h
Temperature: 72°F , 22°C
Dew Point: 37°F , 3°C
Humidity: 29%
Barometer: 29.91 inHg , 1012.9 hPa
Clouds: Clear
Visibility: 10 miles , 16 km
2022/05/19 08:55 KA39 190855Z AUTO 11007KT 10SM CLR 22/03 A2991 RMK AO2
KPRC - Prescott, Arizona, USA
Distance from station: NNW 64mi, 103km
Updated: 2022-05-19 01:53
Clear
Clear
 Wind from SSW
Wind: SSW 8 mph , 13 km/h
Temperature: 61°F , 16°C
Dew Point: 25°F , -4°C
Humidity: 25%
Barometer: 30.08 inHg , 1018.6 hPa
Clouds: Clear
Visibility: 10 miles , 16 km
2022/05/19 08:53 KPRC 190853Z AUTO 20007KT 10SM CLR 16/M04 A3008 RMK AO2 SLP104 T01611044 58009
KSEZ - Sedona, Arizona, USA
Distance from station: N 71mi, 114km
Updated: 2022-05-19 01:55
Clear
Clear
 Wind from NNE
Wind: NNE 5 mph , 7 km/h
Temperature: 68°F , 20°C
Dew Point: 21°F , -6°C
Humidity: 17%
Barometer: 30.07 inHg , 1018.3 hPa
Clouds: Clear
Visibility: 10 miles , 16 km
2022/05/19 08:55 KSEZ 190855Z AUTO 02004KT 10SM CLR 20/M06 A3007 RMK AO2
 
KFLG - Flagstaff, Arizona, USA
Distance from station: N 91mi, 147km
Updated: 2022-05-19 01:57
Clear
Clear
 Wind from SW
Wind: SW 3 mph , 6 km/h
Temperature: 46°F , 8°C
Dew Point: 19°F , -7°C
Humidity: 34%
Barometer: 30.18 inHg , 1022 hPa
Clouds: Clear
Visibility: 10 miles , 16 km
2022/05/19 08:57 KFLG 190857Z AUTO 22003KT 10SM CLR 08/M07 A3018 RMK AO2 SLP127 T00781072 58014